Time;durP1;ratioP1;P1;durP2;ratioP2;P2;SDS_P1;SDS_P2;PMS_P1;PMS_P2;Temp;Humidity;BMP_temperature;BMP_pressure;BME280_temperature;BME280_humidity;BME280_pressure;Samples;Min_cycle;Max_cycle;Signal;HPM_P1;HPM_P2
2022/05/16 00:01:52;;;;;;;3.95;1.30;;;;;;;12.84;54.33;99341.17;1664790;86;20903;-64
2022/05/16 00:04:20;;;;;;;2.80;1.27;;;;;;;12.81;54.52;99336.20;1664802;86;21521;-62
2022/05/16 00:06:47;;;;;;;2.77;1.40;;;;;;;12.78;54.60;99338.41;1673030;85;21052;-66
2022/05/16 00:09:14;;;;;;;3.27;1.47;;;;;;;12.74;54.79;99341.15;1679490;85;21483;-63
2022/05/16 00:11:40;;;;;;;6.30;1.67;;;;;;;12.70;54.91;99337.19;1665523;85;21169;-64
2022/05/16 00:14:07;;;;;;;2.40;1.20;;;;;;;12.67;55.05;99340.25;1665005;86;20943;-63
2022/05/16 00:16:35;;;;;;;3.58;1.47;;;;;;;12.63;55.16;99340.28;1665861;85;21050;-63
2022/05/16 00:19:03;;;;;;;2.45;1.40;;;;;;;12.56;55.45;99340.22;1664721;86;21065;-64
2022/05/16 00:21:32;;;;;;;2.65;1.12;;;;;;;12.47;55.68;99341.32;1665128;85;20943;-65
2022/05/16 00:23:59;;;;;;;1.55;1.25;;;;;;;12.44;55.87;99336.85;1664731;86;21158;-65
2022/05/16 00:26:25;;;;;;;4.62;1.10;;;;;;;12.38;56.04;99337.91;1668472;83;20903;-63
2022/05/16 00:28:52;;;;;;;3.08;1.52;;;;;;;12.34;56.26;99335.31;1713219;83;21462;-63
2022/05/16 00:31:18;;;;;;;2.72;1.05;;;;;;;12.28;56.52;99343.20;1713174;83;20951;-63
2022/05/16 00:33:45;;;;;;;2.50;1.32;;;;;;;12.27;56.67;99338.41;1713189;83;20883;-63
2022/05/16 00:36:11;;;;;;;3.52;1.60;;;;;;;12.22;56.75;99335.46;1700395;83;21223;-65
2022/05/16 00:38:38;;;;;;;3.60;1.40;;;;;;;12.17;56.89;99336.52;1679140;85;20945;-63
2022/05/16 00:41:06;;;;;;;1.67;1.20;;;;;;;12.14;56.97;99337.38;1679530;85;21613;-63
2022/05/16 00:43:58;;;;;;;2.27;1.22;;;;;;;12.10;57.15;99339.58;1679475;85;20972;-61
2022/05/16 00:46:29;;;;;;;3.58;1.62;;;;;;;12.06;57.31;99332.13;1678276;85;21463;-64
2022/05/16 00:48:56;;;;;;;2.90;1.22;;;;;;;12.01;57.45;99336.69;1685008;84;21123;-62
2022/05/16 00:51:29;;;;;;;2.80;1.40;;;;;;;11.99;57.50;99332.02;1687054;85;21013;-62
2022/05/16 00:56:34;;;;;;;2.70;1.25;;;;;;;11.92;57.70;99329.77;1685828;85;20956;-64
2022/05/16 00:59:01;;;;;;;3.12;1.55;;;;;;;11.89;57.98;99327.47;1687051;85;21570;-64
2022/05/16 01:06:59;;;;;;;3.03;1.33;;;;;;;11.82;58.61;99329.21;1686382;85;20952;-66
2022/05/16 01:09:26;;;;;;;2.40;1.62;;;;;;;11.80;58.75;99335.23;1686821;85;21252;-64
2022/05/16 01:11:52;;;;;;;2.12;1.35;;;;;;;11.78;58.83;99336.73;1686969;85;20961;-63
2022/05/16 01:14:45;;;;;;;2.55;1.60;;;;;;;11.77;58.90;99338.26;1686997;85;21231;-65
2022/05/16 01:17:12;;;;;;;1.85;1.40;;;;;;;11.73;59.01;99334.31;1674964;85;21603;-62
2022/05/16 01:19:39;;;;;;;2.15;1.25;;;;;;;11.69;59.17;99336.50;1672324;85;21001;-67
2022/05/16 01:22:13;;;;;;;4.37;1.57;;;;;;;11.69;59.22;99336.50;1672467;85;21551;-64
2022/05/16 01:24:41;;;;;;;4.03;1.40;;;;;;;11.66;59.40;99337.33;1672195;85;20899;-66
2022/05/16 01:27:07;;;;;;;3.10;1.42;;;;;;;11.65;59.57;99336.48;1682166;85;21993;-66
2022/05/16 01:29:33;;;;;;;3.52;1.37;;;;;;;11.64;59.62;99339.34;1686996;85;20987;-62
2022/05/16 01:32:00;;;;;;;3.17;1.35;;;;;;;11.62;59.71;99336.88;1686994;85;21367;-66
2022/05/16 01:34:26;;;;;;;2.10;1.22;;;;;;;11.63;59.77;99339.84;1686886;85;21035;-64
2022/05/16 01:36:53;;;;;;;1.98;1.30;;;;;;;11.60;59.82;99336.20;1685539;85;20944;-63
2022/05/16 01:39:19;;;;;;;2.45;1.40;;;;;;;11.59;59.84;99339.89;1687080;85;21165;-64
2022/05/16 01:41:46;;;;;;;1.90;1.50;;;;;;;11.58;59.87;99340.89;1686961;85;20956;-63
2022/05/16 01:44:13;;;;;;;4.20;1.60;;;;;;;11.56;59.90;99338.09;1686646;85;20975;-62
2022/05/16 01:46:40;;;;;;;4.15;1.52;;;;;;;11.53;59.96;99334.44;1685786;85;21008;-65
2022/05/16 01:49:09;;;;;;;2.27;1.65;;;;;;;11.47;60.11;99341.31;1681653;85;21033;-66
2022/05/16 01:51:38;;;;;;;3.83;1.60;;;;;;;11.46;60.22;99337.02;1679589;85;21812;-64
2022/05/16 01:54:05;;;;;;;3.02;1.70;;;;;;;11.45;60.27;99336.67;1678267;85;20951;-63
2022/05/16 01:56:33;;;;;;;2.92;1.77;;;;;;;11.44;60.28;99339.03;1672064;85;21041;-63
2022/05/16 01:59:01;;;;;;;3.58;1.55;;;;;;;11.43;60.32;99337.86;1671386;85;21517;-63
2022/05/16 02:01:28;;;;;;;2.80;1.47;;;;;;;11.41;60.48;99338.05;1679307;85;21008;-63
2022/05/16 02:03:54;;;;;;;4.10;2.40;;;;;;;11.36;60.62;99336.44;1679319;85;21155;-66
2022/05/16 02:06:21;;;;;;;6.45;2.00;;;;;;;11.35;60.69;99342.75;1678038;85;20897;-63
2022/05/16 02:08:48;;;;;;;3.50;2.00;;;;;;;11.34;60.86;99341.61;1664723;86;21006;-64
2022/05/16 02:11:15;;;;;;;4.12;1.70;;;;;;;11.31;60.98;99337.97;1664686;86;21010;-64
2022/05/16 02:13:42;;;;;;;3.67;1.75;;;;;;;11.29;61.14;99338.13;1664903;85;20939;-65
2022/05/16 02:16:09;;;;;;;1.92;1.27;;;;;;;11.28;61.25;99343.15;1665608;85;21251;-63
2022/05/16 02:18:36;;;;;;;2.15;1.65;;;;;;;11.29;61.24;99344.78;1664762;86;21253;-62
2022/05/16 02:26:35;;;;;;;;;;;;;;;11.22;61.37;99336.36;1668304;85;20955;-63
2022/05/16 02:29:01;;;;;;;2.72;1.55;;;;;;;11.20;61.42;99338.37;1664908;85;21180;-66
2022/05/16 02:31:28;;;;;;;2.20;1.40;;;;;;;11.20;61.45;99339.70;1664713;86;20908;-63
2022/05/16 02:33:54;;;;;;;3.25;1.62;;;;;;;11.17;61.50;99340.89;1664633;86;20959;-63
2022/05/16 02:36:21;;;;;;;3.05;1.52;;;;;;;11.14;61.61;99344.73;1665695;85;21450;-63
2022/05/16 02:38:47;;;;;;;2.45;1.72;;;;;;;11.14;61.72;99340.75;1664797;86;20923;-63
2022/05/16 02:41:14;;;;;;;2.98;1.95;;;;;;;11.20;61.77;99342.38;1664772;86;21184;-66
2022/05/16 02:43:40;;;;;;;1.77;1.32;;;;;;;11.24;61.80;99347.69;1664632;86;20939;-63
2022/05/16 02:46:07;;;;;;;2.42;1.67;;;;;;;11.27;61.89;99347.30;1665713;85;21002;-63
2022/05/16 02:48:33;;;;;;;3.90;1.62;;;;;;;11.31;61.93;99346.80;1673344;84;21054;-64
2022/05/16 02:51:01;;;;;;;4.17;1.50;;;;;;;11.34;61.92;99343.75;1668278;84;20923;-63
2022/05/16 02:53:28;;;;;;;3.80;1.77;;;;;;;11.40;61.90;99347.04;1668184;85;21162;-63
2022/05/16 02:55:54;;;;;;;4.80;1.80;;;;;;;11.47;61.89;99345.84;1668409;85;20899;-64
2022/05/16 02:58:21;;;;;;;4.40;1.67;;;;;;;11.57;61.82;99349.08;1668869;85;21018;-64
2022/05/16 03:00:47;;;;;;;2.35;1.12;;;;;;;11.67;61.75;99346.48;1668142;85;21028;-63
2022/05/16 03:03:14;;;;;;;2.52;1.57;;;;;;;11.81;61.59;99350.20;1668014;86;21069;-66
2022/05/16 03:05:40;;;;;;;2.25;1.32;;;;;;;11.94;61.25;99342.94;1668039;86;21160;-63
2022/05/16 03:08:07;;;;;;;4.35;1.52;;;;;;;12.10;60.95;99345.41;1669048;85;21038;-65
2022/05/16 03:10:36;;;;;;;3.67;1.70;;;;;;;12.27;60.70;99344.23;1668174;84;20950;-66
2022/05/16 03:13:03;;;;;;;3.55;1.67;;;;;;;12.46;60.16;99346.86;1668117;85;20966;-64
2022/05/16 03:15:30;;;;;;;2.95;1.62;;;;;;;12.64;59.59;99341.45;1668031;86;20951;-62
2022/05/16 03:17:57;;;;;;;4.10;1.62;;;;;;;12.84;58.90;99344.34;1669337;85;21267;-66
2022/05/16 03:20:24;;;;;;;6.67;1.95;;;;;;;13.05;58.22;99348.39;1667861;86;20930;-64
2022/05/16 03:22:50;;;;;;;5.03;1.80;;;;;;;13.25;57.62;99345.94;1668151;86;20943;-65
2022/05/16 03:25:17;;;;;;;3.30;2.98;;;;;;;13.47;57.08;99345.77;1667965;85;21019;-62
2022/05/16 03:27:44;;;;;;;10.28;8.68;;;;;;;13.72;56.40;99344.83;1669067;85;20871;-63
2022/05/16 03:30:12;;;;;;;9.60;7.22;;;;;;;13.97;55.75;99345.24;1668203;86;21169;-62
2022/05/16 03:32:39;;;;;;;4.92;4.35;;;;;;;14.24;55.12;99349.73;1668196;86;21082;-62
2022/05/16 03:35:06;;;;;;;6.25;5.53;;;;;;;14.52;54.39;99345.17;1668226;85;20939;-63
2022/05/16 03:37:33;;;;;;;4.20;2.77;;;;;;;14.79;53.91;99341.59;1669163;85;21014;-66
2022/05/16 03:42:45;;;;;;;4.53;2.02;;;;;;;15.42;52.70;99342.16;1668391;86;21362;-65
2022/05/16 03:45:11;;;;;;;5.05;2.42;;;;;;;15.76;52.03;99339.33;1668199;85;20911;-63
2022/05/16 03:47:37;;;;;;;3.33;2.47;;;;;;;16.08;50.60;99342.48;1676122;85;20908;-64
2022/05/16 03:50:05;;;;;;;3.67;2.62;;;;;;;16.41;49.33;99339.75;1680170;85;20968;-66
2022/05/16 03:52:33;;;;;;;4.00;2.20;;;;;;;16.72;48.36;99340.39;1679672;85;21012;-63
2022/05/16 03:55:18;;;;;;;2.83;2.10;;;;;;;17.02;47.35;99346.88;1648729;87;20940;-63
2022/05/16 03:57:44;;;;;;;2.22;1.62;;;;;;;17.34;46.42;99343.67;1646950;87;21498;-64
2022/05/16 04:00:14;;;;;;;3.27;1.72;;;;;;;17.63;45.70;99340.40;1648979;87;21046;-66
2022/05/16 04:02:41;;;;;;;4.62;1.85;;;;;;;17.96;44.87;99346.04;1649089;87;21552;-65
2022/05/16 04:05:09;;;;;;;2.67;1.37;;;;;;;18.33;44.02;99345.86;1649122;86;20916;-64
2022/05/16 04:07:36;;;;;;;2.70;1.40;;;;;;;18.67;43.22;99352.56;1634830;87;21906;-63
2022/05/16 04:10:04;;;;;;;3.10;1.67;;;;;;;19.00;42.43;99350.30;1621098;88;20967;-64
2022/05/16 04:12:30;;;;;;;2.87;2.00;;;;;;;19.33;41.68;99347.13;1621156;88;21003;-66
2022/05/16 04:14:58;;;;;;;1.87;1.65;;;;;;;19.69;40.91;99344.84;1624145;87;21041;-65
2022/05/16 04:17:24;;;;;;;3.85;1.75;;;;;;;20.00;40.11;99352.63;1647105;87;20995;-65
2022/05/16 04:19:51;;;;;;;3.50;2.55;;;;;;;20.33;39.42;99352.61;1648813;87;21161;-63
2022/05/16 04:22:18;;;;;;;3.45;1.82;;;;;;;20.59;38.84;99353.46;1649004;87;21124;-64
2022/05/16 04:24:44;;;;;;;2.33;1.80;;;;;;;20.89;38.34;99354.08;1649138;87;20955;-65
2022/05/16 04:27:11;;;;;;;3.85;2.10;;;;;;;21.17;37.87;99351.42;1647006;87;20982;-64
2022/05/16 04:29:38;;;;;;;3.35;1.80;;;;;;;21.41;37.26;99348.91;1649118;86;20916;-64
2022/05/16 04:32:06;;;;;;;2.35;2.10;;;;;;;21.67;36.79;99347.46;1626059;87;21481;-64
2022/05/16 04:34:33;;;;;;;4.53;2.00;;;;;;;21.98;36.49;99342.03;1621039;88;21015;-64
2022/05/16 04:36:59;;;;;;;2.95;1.75;;;;;;;22.31;36.10;99350.67;1623081;87;20969;-62
2022/05/16 04:39:26;;;;;;;6.60;2.70;;;;;;;22.60;35.55;99348.91;1621189;88;21466;-63
2022/05/16 04:44:38;;;;;;;4.67;2.42;;;;;;;23.06;34.32;99350.34;1621386;88;21348;-65
2022/05/16 04:47:07;;;;;;;2.67;2.42;;;;;;;23.28;34.13;99349.75;1623137;87;20927;-63
2022/05/16 04:49:34;;;;;;;4.50;2.20;;;;;;;23.60;33.78;99342.22;1621066;87;21015;-67
2022/05/16 04:52:00;;;;;;;3.30;2.00;;;;;;;23.95;33.62;99341.17;1579262;90;21120;-63
2022/05/16 04:54:27;;;;;;;3.47;2.17;;;;;;;24.39;32.74;99347.20;1622981;88;20912;-65
2022/05/16 04:56:53;;;;;;;5.50;3.22;;;;;;;24.66;31.83;99344.38;1626987;86;21330;-64
2022/05/16 04:59:20;;;;;;;3.60;2.37;;;;;;;24.87;31.20;99348.85;1624966;88;21094;-64
2022/05/16 05:04:30;;;;;;;3.52;2.67;;;;;;;25.27;30.56;99351.69;1662347;86;21444;-62
2022/05/16 05:06:57;;;;;;;6.20;5.58;;;;;;;25.44;30.09;99350.92;1661196;86;20907;-64
2022/05/16 05:09:24;;;;;;;4.00;2.80;;;;;;;25.63;29.95;99347.14;1673025;85;21179;-66
2022/05/16 05:14:35;;;;;;;2.17;1.98;;;;;;;26.09;29.11;99353.43;1673088;85;21066;-63
2022/05/16 05:17:06;;;;;;;4.03;2.40;;;;;;;26.31;28.62;99348.51;1639955;87;21044;-63
2022/05/16 05:19:33;;;;;;;4.53;2.50;;;;;;;26.49;28.28;99343.04;1639904;87;21039;-68
2022/05/16 05:22:00;;;;;;;5.30;2.92;;;;;;;26.60;28.17;99339.16;1670517;86;22150;-66
2022/05/16 05:24:27;;;;;;;4.10;2.65;;;;;;;26.85;28.08;99341.28;1628037;88;20968;-64
2022/05/16 05:26:53;;;;;;;5.03;1.95;;;;;;;27.16;28.14;99339.78;1660757;86;20998;-64
2022/05/16 05:29:20;;;;;;;5.53;2.52;;;;;;;27.58;27.50;99337.91;1672969;85;21074;-66
2022/05/16 05:31:47;;;;;;;3.52;2.17;;;;;;;27.91;26.82;99337.09;1660942;86;20915;-66
2022/05/16 05:34:13;;;;;;;3.33;2.02;;;;;;;28.13;26.20;99330.08;1660868;86;21253;-64
2022/05/16 05:36:41;;;;;;;4.22;2.05;;;;;;;28.30;25.82;99328.83;1672854;85;21519;-65
2022/05/16 05:39:12;;;;;;;3.40;1.72;;;;;;;28.43;25.76;99337.72;1672408;85;21016;-66
2022/05/16 05:41:38;;;;;;;6.28;1.60;;;;;;;28.59;25.51;99340.55;1660859;86;20974;-64
2022/05/16 05:44:05;;;;;;;4.05;1.57;;;;;;;28.70;25.28;99337.45;1673076;85;20966;-63
2022/05/16 05:46:37;;;;;;;3.15;1.45;;;;;;;28.85;24.89;99338.36;1672897;85;21261;-65
2022/05/16 05:49:04;;;;;;;2.40;1.37;;;;;;;29.05;24.78;99341.64;1672836;85;20933;-64
2022/05/16 05:51:31;;;;;;;1.90;1.27;;;;;;;29.37;24.37;99334.11;1673033;85;21064;-64
2022/05/16 05:53:58;;;;;;;4.05;1.27;;;;;;;29.62;24.08;99338.41;1640010;87;21028;-64
2022/05/16 05:56:24;;;;;;;3.87;1.57;;;;;;;29.79;24.01;99338.70;1639876;87;20976;-63
2022/05/16 05:58:51;;;;;;;8.13;1.90;;;;;;;29.87;23.72;99343.51;1670431;86;21260;-63
2022/05/16 06:01:17;;;;;;;3.17;1.50;;;;;;;29.79;23.72;99345.55;1640207;87;20991;-65
2022/05/16 06:03:44;;;;;;;5.17;1.60;;;;;;;29.51;23.78;99342.41;1636951;87;21036;-64
2022/05/16 06:06:11;;;;;;;3.50;1.60;;;;;;;28.97;24.02;99347.77;1661189;86;20955;-65
2022/05/16 06:08:37;;;;;;;4.83;1.17;;;;;;;28.31;24.69;99344.97;1660762;86;20915;-65
2022/05/16 06:11:04;;;;;;;5.10;1.90;;;;;;;27.81;25.16;99343.47;1660677;86;21508;-65
2022/05/16 06:13:31;;;;;;;3.37;1.50;;;;;;;27.39;25.70;99337.73;1667956;86;21056;-63
2022/05/16 06:15:57;;;;;;;4.85;2.37;;;;;;;26.98;26.19;99344.52;1668045;85;20946;-63
2022/05/16 06:18:24;;;;;;;3.22;1.50;;;;;;;26.70;26.75;99343.22;1667659;85;21653;-64
2022/05/16 06:20:50;;;;;;;3.37;1.85;;;;;;;26.67;27.19;99345.95;1652792;86;21062;-63
2022/05/16 06:23:17;;;;;;;3.37;1.40;;;;;;;26.69;27.29;99343.79;1640895;86;21262;-65
2022/05/16 06:25:44;;;;;;;4.83;1.47;;;;;;;27.09;27.15;99346.91;1674962;84;20910;-63
2022/05/16 06:28:17;;;;;;;3.67;1.52;;;;;;;27.22;26.89;99348.23;1667393;85;21480;-64
2022/05/16 06:30:47;;;;;;;4.75;1.62;;;;;;;27.61;26.65;99345.55;1666233;85;21578;-63
2022/05/16 06:33:14;;;;;;;4.15;1.85;;;;;;;28.02;26.16;99338.67;1653041;86;21529;-65
2022/05/16 06:35:41;;;;;;;2.55;1.72;;;;;;;28.29;25.95;99342.26;1634842;87;21158;-62
2022/05/16 06:38:16;;;;;;;3.10;1.60;;;;;;;28.61;25.51;99334.23;1634543;87;21038;-63
2022/05/16 06:40:48;;;;;;;3.85;2.27;;;;;;;28.61;25.48;99335.59;1660437;86;21160;-63
2022/05/16 06:43:16;;;;;;;5.55;1.90;;;;;;;28.92;25.16;99331.41;1660269;86;21137;-63
2022/05/16 06:45:42;;;;;;;5.72;1.77;;;;;;;29.60;24.77;99331.02;1660382;86;20997;-63
2022/05/16 06:48:09;;;;;;;5.45;1.95;;;;;;;29.96;24.59;99329.35;1667436;86;21149;-64
2022/05/16 06:50:36;;;;;;;3.52;1.77;;;;;;;30.87;23.50;99321.59;1667526;85;20990;-63
2022/05/16 06:53:03;;;;;;;2.50;1.67;;;;;;;31.50;22.59;99317.48;1667623;85;20965;-64
2022/05/16 06:55:30;;;;;;;3.50;1.82;;;;;;;31.73;22.25;99312.80;1667259;85;21113;-64
2022/05/16 06:57:58;;;;;;;3.85;1.95;;;;;;;32.27;21.60;99307.04;1667662;86;21124;-65
2022/05/16 07:00:26;;;;;;;3.50;1.57;;;;;;;32.65;20.86;99301.05;1667480;86;21260;-65
2022/05/16 07:02:52;;;;;;;2.25;1.30;;;;;;;32.70;20.52;99305.84;1667129;86;21057;-66
2022/05/16 07:05:19;;;;;;;1.98;1.00;;;;;;;32.89;20.05;99303.64;1623447;88;20901;-64
2022/05/16 07:07:45;;;;;;;3.37;1.30;;;;;;;33.35;19.29;99307.76;1609972;89;21002;-66
2022/05/16 07:10:12;;;;;;;1.42;1.05;;;;;;;32.99;19.12;99299.75;1629500;86;21017;-66
2022/05/16 07:12:41;;;;;;;2.50;1.55;;;;;;;32.38;19.47;99317.77;1606748;89;21005;-67
2022/05/16 07:15:10;;;;;;;4.45;1.40;;;;;;;31.71;20.05;99314.50;1629751;88;20905;-66
2022/05/16 07:17:37;;;;;;;2.98;1.50;;;;;;;30.83;20.94;99319.77;1605337;89;21489;-66
2022/05/16 07:20:05;;;;;;;4.00;1.40;;;;;;;29.98;21.93;99323.59;1628162;88;21487;-67
2022/05/16 07:22:31;;;;;;;3.02;1.35;;;;;;;29.27;22.84;99327.42;1596129;88;21018;-65
2022/05/16 07:24:59;;;;;;;2.37;1.05;;;;;;;28.70;23.50;99335.26;1627611;88;21911;-65
2022/05/16 07:30:12;;;;;;;2.02;1.00;;;;;;;27.73;24.50;99333.15;1605084;89;21033;-66
2022/05/16 07:32:43;;;;;;;2.67;1.35;;;;;;;27.42;25.09;99335.84;1606449;89;21018;-65
2022/05/16 07:35:13;;;;;;;2.47;1.20;;;;;;;27.27;25.57;99344.10;1607825;89;21461;-68
2022/05/16 07:37:39;;;;;;;3.98;1.37;;;;;;;27.10;25.67;99340.36;1607844;89;21790;-65
2022/05/16 07:40:09;;;;;;;2.70;1.20;;;;;;;26.91;25.66;99346.17;1607838;89;20963;-64
2022/05/16 07:42:35;;;;;;;4.80;1.30;;;;;;;26.64;25.95;99353.36;1607925;89;21040;-68
2022/05/16 07:45:03;;;;;;;3.92;1.52;;;;;;;26.58;26.21;99350.36;1607951;89;21540;-66
2022/05/16 07:47:31;;;;;;;3.00;1.30;;;;;;;26.55;26.12;99352.82;1607752;89;21097;-68
2022/05/16 07:49:58;;;;;;;6.22;1.30;;;;;;;26.52;25.97;99348.73;1607824;89;21505;-66
2022/05/16 07:52:26;;;;;;;5.15;1.70;;;;;;;26.38;26.20;99349.60;1607661;89;20923;-69
2022/05/16 07:54:54;;;;;;;2.80;1.10;;;;;;;26.38;26.46;99349.06;1607856;89;21007;-65
2022/05/16 07:57:22;;;;;;;4.45;1.20;;;;;;;26.78;26.38;99348.14;1607733;89;21030;-66
2022/05/16 07:59:49;;;;;;;4.30;1.30;;;;;;;27.24;25.95;99348.21;1607950;89;20887;-68
2022/05/16 08:02:16;;;;;;;3.80;1.50;;;;;;;27.54;25.86;99347.22;1607797;89;21154;-65
2022/05/16 08:04:42;;;;;;;3.58;0.90;;;;;;;27.87;25.32;99338.20;1620591;87;20963;-64
2022/05/16 08:07:09;;;;;;;2.25;1.00;;;;;;;28.24;24.90;99336.27;1626523;88;20976;-66
2022/05/16 08:12:26;;;;;;;3.50;1.05;;;;;;;28.97;24.16;99329.16;1661052;86;21583;-65
2022/05/16 08:14:52;;;;;;;3.22;1.15;;;;;;;29.97;23.33;99324.14;1660577;86;21319;-68
2022/05/16 08:17:19;;;;;;;5.80;1.70;;;;;;;30.66;22.67;99330.57;1660974;86;21504;-66
2022/05/16 08:19:46;;;;;;;4.78;1.62;;;;;;;31.90;21.91;99319.00;1660890;86;20871;-65
2022/05/16 08:22:13;;;;;;;2.80;1.27;;;;;;;32.17;20.98;99318.29;1660966;86;21468;-68
2022/05/16 08:24:40;;;;;;;3.33;1.10;;;;;;;32.50;20.35;99320.72;1660994;86;21120;-67
2022/05/16 08:27:07;;;;;;;1.47;0.78;;;;;;;32.84;20.17;99314.80;1661199;86;21165;-67
2022/05/16 08:29:34;;;;;;;3.85;1.20;;;;;;;33.51;19.48;99309.72;1661017;86;20970;-67
2022/05/16 08:32:01;;;;;;;6.33;1.52;;;;;;;33.20;19.08;99316.51;1660926;86;21402;-65
2022/05/16 08:34:30;;;;;;;3.08;1.07;;;;;;;33.14;19.03;99321.95;1661000;86;21037;-65
2022/05/16 08:40:03;;;;;;;4.97;1.02;;;;;;;33.23;18.73;99321.38;1661184;86;21180;-67
2022/05/16 08:43:05;;;;;;;2.65;1.00;;;;;;;33.39;18.55;99323.91;1660289;86;21036;-69
2022/05/16 08:45:38;;;;;;;3.33;0.82;;;;;;;32.48;18.98;99327.12;1661038;86;21006;-67
2022/05/16 09:30:20;;;;;;;2.75;1.00;;;;;;;36.60;14.69;99306.48;1796189;78;22938;-67
2022/05/16 09:32:58;;;;;;;1.57;0.85;;;;;;;35.10;15.59;99309.67;1766248;81;20998;-70
2022/05/16 09:35:50;;;;;;;4.28;0.90;;;;;;;33.95;16.21;99308.55;1749602;81;21154;-70
2022/05/16 09:38:18;;;;;;;3.33;1.17;;;;;;;32.48;17.46;99322.43;1760948;80;20987;-70
2022/05/16 09:41:10;;;;;;;1.47;0.80;;;;;;;32.14;18.10;99318.95;1766832;81;20899;-69
2022/05/16 09:43:46;;;;;;;3.52;1.00;;;;;;;30.98;18.95;99316.17;1766702;81;20947;-71
2022/05/16 09:46:21;;;;;;;3.08;0.95;;;;;;;30.05;19.85;99308.36;1766504;81;20993;-67
2022/05/16 09:49:05;;;;;;;2.73;1.10;;;;;;;29.24;20.51;99312.39;1767071;81;21215;-69
2022/05/16 09:51:55;;;;;;;3.25;0.90;;;;;;;30.12;19.82;99312.07;1723024;81;20995;-70
2022/05/16 09:54:32;;;;;;;1.65;0.78;;;;;;;31.27;18.81;99308.12;1766218;81;20947;-69
2022/05/16 09:57:20;;;;;;;2.40;0.78;;;;;;;31.29;18.78;99305.31;1758821;81;20927;-71
2022/05/16 09:59:58;;;;;;;2.55;0.82;;;;;;;32.12;18.19;99297.00;1766724;81;21133;-70
2022/05/16 10:02:28;;;;;;;6.05;1.02;;;;;;;32.30;18.33;99300.09;1766875;81;21232;-70
2022/05/16 10:05:02;;;;;;;2.40;1.00;;;;;;;33.47;17.29;99294.16;1766691;80;20888;-69
2022/05/16 10:07:34;;;;;;;2.37;1.00;;;;;;;32.24;18.01;99297.22;1756911;81;21532;-68
2022/05/16 10:10:02;;;;;;;3.30;0.85;;;;;;;31.58;19.05;99296.69;1766382;81;21469;-69
2022/05/16 10:12:29;;;;;;;2.00;0.82;;;;;;;31.44;19.22;99289.05;1766757;81;20931;-71
2022/05/16 10:14:56;;;;;;;4.22;0.90;;;;;;;31.24;19.02;99290.88;1732022;81;21144;-70
2022/05/16 10:17:34;;;;;;;3.05;0.85;;;;;;;30.95;19.29;99299.48;1750648;81;20872;-69
2022/05/16 10:20:09;;;;;;;2.05;0.80;;;;;;;30.51;19.57;99298.18;1750605;81;20888;-68
2022/05/16 10:22:36;;;;;;;2.12;0.72;;;;;;;29.92;19.92;99290.77;1750500;81;21153;-70
2022/05/16 10:25:05;;;;;;;2.67;1.10;;;;;;;29.40;20.37;99288.87;1725240;81;20899;-72
2022/05/16 10:27:35;;;;;;;1.00;0.65;;;;;;;28.91;20.70;99291.47;1750634;81;21273;-69
2022/05/16 10:30:15;;;;;;;8.45;1.17;;;;;;;28.58;21.14;99287.73;1750246;81;20979;-71
2022/05/16 10:35:32;;;;;;;6.58;1.32;;;;;;;28.02;21.43;99291.66;1757356;81;20923;-73
2022/05/16 10:38:03;;;;;;;1.80;0.90;;;;;;;27.66;21.87;99293.59;1766060;81;20998;-68
2022/05/16 10:40:37;;;;;;;3.45;1.30;;;;;;;27.42;22.36;99298.96;1766204;81;21231;-68
2022/05/16 10:43:36;;;;;;;2.13;0.90;;;;;;;27.15;22.49;99302.10;1737194;81;20881;-70
2022/05/16 10:46:13;;;;;;;1.87;0.93;;;;;;;26.84;22.81;99304.73;1766088;81;20892;-69
2022/05/16 10:48:47;;;;;;;2.75;1.05;;;;;;;26.46;23.19;99299.41;1766020;81;20939;-73
2022/05/16 10:51:28;;;;;;;3.60;0.85;;;;;;;26.27;23.56;99303.81;1766183;81;20939;-70
2022/05/16 10:54:11;;;;;;;2.17;0.80;;;;;;;26.21;23.40;99289.91;1766162;81;21896;-71
2022/05/16 10:57:13;;;;;;;5.12;1.00;;;;;;;26.09;23.51;99285.28;1766031;81;20943;-69
2022/05/16 10:59:52;;;;;;;1.42;0.88;;;;;;;26.00;23.69;99295.09;1762198;81;20899;-68
2022/05/16 11:02:44;;;;;;;3.65;0.70;;;;;;;25.88;23.69;99284.50;1749224;81;21866;-70
2022/05/16 11:05:56;;;;;;;2.47;1.10;;;;;;;25.94;24.00;99284.74;1765913;81;20911;-71
2022/05/16 11:09:20;;;;;;;3.15;1.17;;;;;;;25.87;23.56;99292.39;1765591;81;21210;-68
2022/05/16 11:12:13;;;;;;;2.87;1.15;;;;;;;25.74;23.98;99289.69;1759043;81;21535;-69
2022/05/16 11:15:05;;;;;;;4.40;1.37;;;;;;;25.56;24.13;99284.78;1766446;81;21428;-68
2022/05/16 11:17:51;;;;;;;4.70;1.47;;;;;;;25.59;24.37;99280.70;1766212;81;20881;-68
2022/05/16 11:20:28;;;;;;;3.35;1.25;;;;;;;25.63;24.63;99277.69;1766196;81;21464;-69
2022/05/16 11:23:06;;;;;;;2.83;1.20;;;;;;;25.79;24.89;99277.95;1766019;81;21768;-69
2022/05/16 11:25:49;;;;;;;1.98;0.72;;;;;;;25.91;24.46;99270.88;1764956;81;20844;-71
2022/05/16 11:29:16;;;;;;;2.65;0.90;;;;;;;25.95;24.00;99274.12;1766048;81;21508;-70
2022/05/16 11:31:14;;;;;;;2.05;0.88;;;;;;;25.91;23.52;99266.78;1729727;81;20986;-72
2022/05/16 11:33:50;;;;;;;5.42;0.90;;;;;;;25.78;23.89;99268.96;1750089;81;20935;-69
2022/05/16 11:36:32;;;;;;;3.05;0.80;;;;;;;25.67;24.00;99267.36;1757064;81;21192;-69
2022/05/16 11:39:07;;;;;;;5.37;1.12;;;;;;;25.51;24.10;99271.16;1765994;81;21448;-69
2022/05/16 11:41:54;;;;;;;1.62;0.78;;;;;;;25.40;24.03;99270.85;1766354;81;21428;-73
2022/05/16 11:44:31;;;;;;;1.02;0.70;;;;;;;25.35;24.20;99267.30;1765606;81;21567;-71
2022/05/16 11:47:22;;;;;;;1.27;0.75;;;;;;;25.31;24.58;99256.16;1766067;81;20990;-69
2022/05/16 11:50:23;;;;;;;2.92;0.78;;;;;;;25.32;24.68;99257.77;1765896;80;21471;-67
2022/05/16 11:53:36;;;;;;;1.70;0.90;;;;;;;25.35;24.72;99262.68;1752678;81;20994;-69
2022/05/16 12:01:36;;;;;;;1.10;0.70;;;;;;;25.65;24.59;99269.52;1670994;85;21005;-70
2022/05/16 12:04:24;;;;;;;2.52;1.40;;;;;;;25.67;24.79;99266.53;1766123;81;21115;-72
2022/05/16 12:06:54;;;;;;;4.55;1.75;;;;;;;25.61;24.68;99271.16;1766070;81;20986;-69
2022/05/16 12:09:24;;;;;;;1.77;1.05;;;;;;;25.57;25.04;99266.00;1766010;81;20947;-69
2022/05/16 12:12:07;;;;;;;4.17;1.35;;;;;;;25.55;24.60;99264.64;1765985;81;20994;-72
2022/05/16 12:14:37;;;;;;;8.75;1.22;;;;;;;25.48;24.22;99259.45;1766037;81;20888;-69
2022/05/16 12:17:18;;;;;;;3.75;1.00;;;;;;;25.22;24.02;99255.05;1766022;81;21251;-68
2022/05/16 12:19:51;;;;;;;2.95;1.00;;;;;;;24.93;24.34;99257.98;1765213;80;20919;-71
2022/05/16 12:22:40;;;;;;;3.27;0.95;;;;;;;24.78;24.88;99249.75;1765882;81;21425;-69
2022/05/16 12:25:27;;;;;;;1.40;0.80;;;;;;;24.67;24.93;99254.34;1766018;81;21507;-69
2022/05/16 12:28:17;;;;;;;2.58;0.88;;;;;;;24.56;25.19;99257.56;1749982;81;20931;-69
2022/05/16 12:30:48;;;;;;;2.08;0.98;;;;;;;24.42;25.57;99254.25;1753002;80;21137;-73
2022/05/16 12:33:44;;;;;;;0.98;0.62;;;;;;;24.25;26.08;99249.53;1756543;80;20903;-74
2022/05/16 12:36:21;;;;;;;1.87;0.82;;;;;;;24.17;26.19;99252.21;1758057;80;21519;-71
2022/05/16 12:39:01;;;;;;;1.32;0.93;;;;;;;24.13;26.07;99254.37;1758244;80;20943;-69
2022/05/16 12:41:47;;;;;;;1.77;1.05;;;;;;;24.09;26.01;99243.77;1757976;80;20935;-68
2022/05/16 12:44:44;;;;;;;1.65;0.80;;;;;;;24.04;25.51;99238.27;1758414;80;21476;-71
2022/05/16 12:47:27;;;;;;;2.62;0.78;;;;;;;23.91;25.61;99241.71;1757995;80;21021;-71
2022/05/16 12:50:22;;;;;;;1.50;0.90;;;;;;;23.84;26.05;99245.73;1758130;80;20939;-69
2022/05/16 12:53:12;;;;;;;5.33;1.22;;;;;;;23.80;26.10;99243.28;1727527;83;20946;-68
2022/05/16 12:56:27;;;;;;;3.42;1.00;;;;;;;23.78;26.24;99245.41;1719488;83;20951;-71
2022/05/16 12:59:05;;;;;;;1.37;0.70;;;;;;;23.80;26.45;99241.92;1719493;83;21168;-69
2022/05/16 13:01:50;;;;;;;3.02;1.02;;;;;;;23.78;26.58;99246.24;1719167;83;21399;-69
2022/05/16 13:04:47;;;;;;;3.08;1.12;;;;;;;23.76;26.29;99232.64;1727449;81;20966;-70
2022/05/16 13:07:41;;;;;;;2.10;0.93;;;;;;;23.71;25.82;99229.90;1727534;83;21536;-70
2022/05/16 13:10:48;;;;;;;1.32;0.70;;;;;;;23.62;25.69;99234.19;1688533;83;20974;-68
2022/05/16 13:13:46;;;;;;;1.25;0.98;;;;;;;23.56;25.82;99233.33;1717393;83;21251;-68
2022/05/16 13:16:24;;;;;;;4.00;1.40;;;;;;;23.52;25.97;99224.05;1724279;83;20930;-69
2022/05/16 13:18:59;;;;;;;3.77;1.27;;;;;;;23.47;25.91;99229.98;1717970;83;21412;-68
2022/05/16 13:21:36;;;;;;;1.92;1.30;;;;;;;23.43;26.09;99224.27;1718780;83;21109;-69